sensor_id;sensor_type;location;lat;lon;timestamp;pressure;altitude;pressure_sealevel;temperature;humidity
66396;BME280;53207;51.378;-1.342;2023-04-24T00:01:55;99292.31;;;20.49;35.95
66396;BME280;53207;51.378;-1.342;2023-04-24T00:04:23;99296.10;;;20.23;35.95
66396;BME280;53207;51.378;-1.342;2023-04-24T00:06:50;99297.83;;;20.53;35.73
66396;BME280;53207;51.378;-1.342;2023-04-24T00:09:18;99299.18;;;20.46;35.73
66396;BME280;53207;51.378;-1.342;2023-04-24T00:11:45;99301.20;;;20.58;35.84
66396;BME280;53207;51.378;-1.342;2023-04-24T00:14:12;99302.78;;;20.40;35.75
66396;BME280;53207;51.378;-1.342;2023-04-24T00:16:39;99307.17;;;20.61;35.68
66396;BME280;53207;51.378;-1.342;2023-04-24T00:19:06;99313.86;;;20.41;35.59
66396;BME280;53207;51.378;-1.342;2023-04-24T00:21:34;99320.22;;;20.55;35.57
66396;BME280;53207;51.378;-1.342;2023-04-24T00:24:01;99320.24;;;20.58;35.36
66396;BME280;53207;51.378;-1.342;2023-04-24T00:26:28;99320.27;;;20.33;35.35
66396;BME280;53207;51.378;-1.342;2023-04-24T00:28:56;99316.12;;;20.30;35.28
66396;BME280;53207;51.378;-1.342;2023-04-24T00:31:23;99315.09;;;19.97;35.36
66396;BME280;53207;51.378;-1.342;2023-04-24T00:33:50;99313.58;;;20.00;35.19
66396;BME280;53207;51.378;-1.342;2023-04-24T00:36:18;99311.34;;;20.44;35.33
66396;BME280;53207;51.378;-1.342;2023-04-24T00:38:45;99313.62;;;20.22;35.21
66396;BME280;53207;51.378;-1.342;2023-04-24T00:41:12;99313.56;;;20.33;35.37
66396;BME280;53207;51.378;-1.342;2023-04-24T00:43:39;99314.62;;;20.15;35.18
66396;BME280;53207;51.378;-1.342;2023-04-24T00:46:07;99310.66;;;20.25;35.19
66396;BME280;53207;51.378;-1.342;2023-04-24T00:48:34;99309.15;;;20.32;35.16
66396;BME280;53207;51.378;-1.342;2023-04-24T00:51:02;99310.66;;;20.11;35.13
66396;BME280;53207;51.378;-1.342;2023-04-24T00:53:30;99313.51;;;19.84;35.04
66396;BME280;53207;51.378;-1.342;2023-04-24T00:55:57;99318.71;;;19.80;35.01
66396;BME280;53207;51.378;-1.342;2023-04-24T00:58:24;99322.85;;;19.98;35.06
66396;BME280;53207;51.378;-1.342;2023-04-24T01:00:53;99327.99;;;20.06;34.90
66396;BME280;53207;51.378;-1.342;2023-04-24T01:03:22;99334.68;;;19.99;34.94
66396;BME280;53207;51.378;-1.342;2023-04-24T01:05:51;99336.46;;;20.30;34.76
66396;BME280;53207;51.378;-1.342;2023-04-24T01:08:18;99337.59;;;19.96;34.87
66396;BME280;53207;51.378;-1.342;2023-04-24T01:10:46;99339.21;;;19.93;34.90
66396;BME280;53207;51.378;-1.342;2023-04-24T01:13:14;99343.75;;;20.21;34.83
66396;BME280;53207;51.378;-1.342;2023-04-24T01:15:42;99349.94;;;20.20;34.77
66396;BME280;53207;51.378;-1.342;2023-04-24T01:18:09;99355.56;;;20.12;34.96
66396;BME280;53207;51.378;-1.342;2023-04-24T01:20:37;99358.25;;;19.96;34.85
66396;BME280;53207;51.378;-1.342;2023-04-24T01:23:06;99359.97;;;19.92;34.89
66396;BME280;53207;51.378;-1.342;2023-04-24T01:25:34;99359.73;;;20.15;34.69
66396;BME280;53207;51.378;-1.342;2023-04-24T01:28:02;99361.18;;;20.07;34.69
66396;BME280;53207;51.378;-1.342;2023-04-24T01:30:29;99364.26;;;20.07;34.62
66396;BME280;53207;51.378;-1.342;2023-04-24T01:32:58;99364.80;;;19.81;34.69
66396;BME280;53207;51.378;-1.342;2023-04-24T01:35:26;99362.74;;;19.88;34.42
66396;BME280;53207;51.378;-1.342;2023-04-24T01:37:53;99364.82;;;19.78;34.63
66396;BME280;53207;51.378;-1.342;2023-04-24T01:40:21;99363.51;;;19.99;34.63
66396;BME280;53207;51.378;-1.342;2023-04-24T01:42:48;99363.36;;;19.93;34.68
66396;BME280;53207;51.378;-1.342;2023-04-24T01:45:15;99363.41;;;19.96;34.63
66396;BME280;53207;51.378;-1.342;2023-04-24T01:47:43;99360.45;;;19.74;34.62
66396;BME280;53207;51.378;-1.342;2023-04-24T01:50:10;99362.30;;;19.65;34.64
66396;BME280;53207;51.378;-1.342;2023-04-24T01:52:38;99366.02;;;19.90;34.43
66396;BME280;53207;51.378;-1.342;2023-04-24T01:55:06;99359.89;;;19.96;34.52
66396;BME280;53207;51.378;-1.342;2023-04-24T01:57:33;99363.29;;;19.92;34.56
66396;BME280;53207;51.378;-1.342;2023-04-24T02:00:00;99359.29;;;19.70;34.56
66396;BME280;53207;51.378;-1.342;2023-04-24T02:02:28;99359.88;;;19.70;34.55
66396;BME280;53207;51.378;-1.342;2023-04-24T02:04:55;99366.35;;;19.93;34.37
66396;BME280;53207;51.378;-1.342;2023-04-24T02:07:22;99370.99;;;19.87;34.46
66396;BME280;53207;51.378;-1.342;2023-04-24T02:09:50;99369.99;;;19.91;34.37
66396;BME280;53207;51.378;-1.342;2023-04-24T02:12:17;99373.85;;;19.68;34.33
66396;BME280;53207;51.378;-1.342;2023-04-24T02:14:44;99376.64;;;19.90;34.29
66396;BME280;53207;51.378;-1.342;2023-04-24T02:17:12;99384.20;;;19.60;34.29
66396;BME280;53207;51.378;-1.342;2023-04-24T02:19:39;99387.63;;;19.73;34.39
66396;BME280;53207;51.378;-1.342;2023-04-24T02:22:06;99391.21;;;19.84;34.29
66396;BME280;53207;51.378;-1.342;2023-04-24T02:24:33;99391.55;;;19.79;34.30
66396;BME280;53207;51.378;-1.342;2023-04-24T02:27:01;99389.71;;;19.78;34.29
66396;BME280;53207;51.378;-1.342;2023-04-24T02:29:28;99390.22;;;19.73;34.29
66396;BME280;53207;51.378;-1.342;2023-04-24T02:31:55;99389.26;;;19.76;34.27
66396;BME280;53207;51.378;-1.342;2023-04-24T02:34:23;99395.38;;;19.72;34.34
66396;BME280;53207;51.378;-1.342;2023-04-24T02:36:50;99399.24;;;19.72;34.26
66396;BME280;53207;51.378;-1.342;2023-04-24T02:39:18;99400.86;;;19.76;34.12
66396;BME280;53207;51.378;-1.342;2023-04-24T02:41:45;99397.88;;;19.71;34.12
66396;BME280;53207;51.378;-1.342;2023-04-24T02:44:12;99399.36;;;19.70;34.24
66396;BME280;53207;51.378;-1.342;2023-04-24T02:46:39;99401.41;;;19.68;34.16
66396;BME280;53207;51.378;-1.342;2023-04-24T02:49:06;99408.66;;;19.61;34.16
66396;BME280;53207;51.378;-1.342;2023-04-24T02:51:34;99415.32;;;19.63;34.22
66396;BME280;53207;51.378;-1.342;2023-04-24T02:54:01;99420.84;;;19.64;34.19
66396;BME280;53207;51.378;-1.342;2023-04-24T02:56:28;99422.24;;;19.64;34.13
66396;BME280;53207;51.378;-1.342;2023-04-24T02:58:56;99427.38;;;19.61;34.17
66396;BME280;53207;51.378;-1.342;2023-04-24T03:01:23;99427.56;;;19.63;34.23
66396;BME280;53207;51.378;-1.342;2023-04-24T03:03:50;99426.37;;;19.64;34.16
66396;BME280;53207;51.378;-1.342;2023-04-24T03:06:18;99429.13;;;19.61;34.15
66396;BME280;53207;51.378;-1.342;2023-04-24T03:08:45;99434.43;;;19.51;34.16
66396;BME280;53207;51.378;-1.342;2023-04-24T03:11:12;99440.60;;;19.53;34.07
66396;BME280;53207;51.378;-1.342;2023-04-24T03:13:40;99438.61;;;19.58;34.05
66396;BME280;53207;51.378;-1.342;2023-04-24T03:16:07;99439.01;;;19.59;34.05
66396;BME280;53207;51.378;-1.342;2023-04-24T03:18:34;99445.76;;;19.51;34.09
66396;BME280;53207;51.378;-1.342;2023-04-24T03:21:02;99448.72;;;19.56;34.06
66396;BME280;53207;51.378;-1.342;2023-04-24T03:23:29;99449.79;;;19.60;33.96
66396;BME280;53207;51.378;-1.342;2023-04-24T03:25:56;99452.15;;;19.54;34.12
66396;BME280;53207;51.378;-1.342;2023-04-24T03:28:24;99451.81;;;19.55;33.92
66396;BME280;53207;51.378;-1.342;2023-04-24T03:30:51;99450.36;;;19.50;34.02
66396;BME280;53207;51.378;-1.342;2023-04-24T03:33:19;99453.21;;;19.52;34.01
66396;BME280;53207;51.378;-1.342;2023-04-24T03:35:46;99453.62;;;19.47;33.98
66396;BME280;53207;51.378;-1.342;2023-04-24T03:38:13;99455.82;;;19.46;34.07
66396;BME280;53207;51.378;-1.342;2023-04-24T03:40:40;99454.75;;;19.44;34.01
66396;BME280;53207;51.378;-1.342;2023-04-24T03:43:08;99453.56;;;19.46;33.98
66396;BME280;53207;51.378;-1.342;2023-04-24T03:45:35;99454.69;;;19.48;33.95
66396;BME280;53207;51.378;-1.342;2023-04-24T03:48:03;99454.09;;;19.44;34.04
66396;BME280;53207;51.378;-1.342;2023-04-24T03:50:30;99458.60;;;19.39;33.99
66396;BME280;53207;51.378;-1.342;2023-04-24T03:52:57;99462.11;;;19.45;33.92
66396;BME280;53207;51.378;-1.342;2023-04-24T03:55:24;99466.34;;;19.37;33.94
66396;BME280;53207;51.378;-1.342;2023-04-24T03:57:52;99468.81;;;19.41;33.90
66396;BME280;53207;51.378;-1.342;2023-04-24T04:00:19;99468.51;;;19.40;33.89
66396;BME280;53207;51.378;-1.342;2023-04-24T04:02:46;99470.71;;;19.87;33.93
66396;BME280;53207;51.378;-1.342;2023-04-24T04:05:14;99470.71;;;19.37;33.83
66396;BME280;53207;51.378;-1.342;2023-04-24T04:07:41;99468.61;;;19.34;33.89
66396;BME280;53207;51.378;-1.342;2023-04-24T04:10:09;99464.98;;;19.30;33.82
66396;BME280;53207;51.378;-1.342;2023-04-24T04:12:36;99468.64;;;19.34;33.84
66396;BME280;53207;51.378;-1.342;2023-04-24T04:15:03;99468.03;;;19.27;33.80
66396;BME280;53207;51.378;-1.342;2023-04-24T04:17:31;99466.24;;;19.27;33.86
66396;BME280;53207;51.378;-1.342;2023-04-24T04:19:58;99470.96;;;19.29;33.82
66396;BME280;53207;51.378;-1.342;2023-04-24T04:22:26;99475.29;;;19.28;33.75
66396;BME280;53207;51.378;-1.342;2023-04-24T04:24:53;99476.53;;;19.27;33.69
66396;BME280;53207;51.378;-1.342;2023-04-24T04:27:20;99474.93;;;19.27;33.66
66396;BME280;53207;51.378;-1.342;2023-04-24T04:29:48;99474.80;;;19.49;33.67
66396;BME280;53207;51.378;-1.342;2023-04-24T04:32:15;99474.77;;;19.54;33.71
66396;BME280;53207;51.378;-1.342;2023-04-24T04:34:42;99474.60;;;19.21;33.63
66396;BME280;53207;51.378;-1.342;2023-04-24T04:37:09;99474.95;;;19.23;33.67
66396;BME280;53207;51.378;-1.342;2023-04-24T04:39:37;99476.03;;;19.28;33.66
66396;BME280;53207;51.378;-1.342;2023-04-24T04:42:04;99475.89;;;19.23;33.65
66396;BME280;53207;51.378;-1.342;2023-04-24T04:44:32;99475.80;;;19.18;33.74
66396;BME280;53207;51.378;-1.342;2023-04-24T04:46:59;99476.84;;;19.19;33.75
66396;BME280;53207;51.378;-1.342;2023-04-24T04:49:26;99479.70;;;19.20;33.75
66396;BME280;53207;51.378;-1.342;2023-04-24T04:51:54;99478.54;;;19.19;33.78
66396;BME280;53207;51.378;-1.342;2023-04-24T04:54:21;99480.84;;;19.41;33.85
66396;BME280;53207;51.378;-1.342;2023-04-24T04:56:50;99481.34;;;19.19;33.81
66396;BME280;53207;51.378;-1.342;2023-04-24T04:59:17;99483.43;;;19.15;33.87
66396;BME280;53207;51.378;-1.342;2023-04-24T05:01:45;99484.54;;;19.13;33.90
66396;BME280;53207;51.378;-1.342;2023-04-24T05:04:12;99488.99;;;19.17;33.85
66396;BME280;53207;51.378;-1.342;2023-04-24T05:06:39;99497.01;;;19.12;33.91
66396;BME280;53207;51.378;-1.342;2023-04-24T05:09:07;99502.42;;;19.11;33.93
66396;BME280;53207;51.378;-1.342;2023-04-24T05:11:34;99504.10;;;19.15;33.87
66396;BME280;53207;51.378;-1.342;2023-04-24T05:14:01;99508.53;;;19.43;33.86
66396;BME280;53207;51.378;-1.342;2023-04-24T05:16:29;99509.67;;;19.18;33.85
66396;BME280;53207;51.378;-1.342;2023-04-24T05:18:56;99514.01;;;19.39;34.00
66396;BME280;53207;51.378;-1.342;2023-04-24T05:21:23;99513.11;;;19.16;33.93
66396;BME280;53207;51.378;-1.342;2023-04-24T05:23:51;99517.54;;;19.61;33.97
66396;BME280;53207;51.378;-1.342;2023-04-24T05:26:18;99522.59;;;19.11;34.01
66396;BME280;53207;51.378;-1.342;2023-04-24T05:28:45;99523.70;;;19.19;33.93
66396;BME280;53207;51.378;-1.342;2023-04-24T05:31:12;99520.70;;;19.72;33.96
66396;BME280;53207;51.378;-1.342;2023-04-24T05:33:40;99517.71;;;19.26;33.98
66396;BME280;53207;51.378;-1.342;2023-04-24T05:36:07;99518.10;;;19.40;33.88
66396;BME280;53207;51.378;-1.342;2023-04-24T05:38:34;99519.47;;;19.59;33.90
66396;BME280;53207;51.378;-1.342;2023-04-24T05:41:02;99521.19;;;19.71;33.86
66396;BME280;53207;51.378;-1.342;2023-04-24T05:43:29;99523.72;;;19.85;33.82
66396;BME280;53207;51.378;-1.342;2023-04-24T05:45:56;99521.81;;;19.96;33.76
66396;BME280;53207;51.378;-1.342;2023-04-24T05:48:24;99525.06;;;20.02;33.70
66396;BME280;53207;51.378;-1.342;2023-04-24T05:50:51;99528.21;;;20.19;33.48
66396;BME280;53207;51.378;-1.342;2023-04-24T05:53:18;99531.27;;;20.24;33.40
66396;BME280;53207;51.378;-1.342;2023-04-24T05:55:45;99536.20;;;20.33;33.32
66396;BME280;53207;51.378;-1.342;2023-04-24T05:58:13;99544.14;;;20.24;33.16
66396;BME280;53207;51.378;-1.342;2023-04-24T06:00:41;99548.64;;;20.48;33.15
66396;BME280;53207;51.378;-1.342;2023-04-24T06:03:09;99549.30;;;20.52;33.02
66396;BME280;53207;51.378;-1.342;2023-04-24T06:05:36;99554.76;;;20.30;32.99
66396;BME280;53207;51.378;-1.342;2023-04-24T06:08:03;99557.45;;;20.34;32.92
66396;BME280;53207;51.378;-1.342;2023-04-24T06:10:30;99562.69;;;20.32;32.86
66396;BME280;53207;51.378;-1.342;2023-04-24T06:12:57;99565.59;;;20.51;32.81
66396;BME280;53207;51.378;-1.342;2023-04-24T06:15:25;99566.68;;;20.20;33.17
66396;BME280;53207;51.378;-1.342;2023-04-24T06:17:52;99566.07;;;20.26;32.96
66396;BME280;53207;51.378;-1.342;2023-04-24T06:20:19;99568.52;;;20.22;32.98
66396;BME280;53207;51.378;-1.342;2023-04-24T06:22:47;99570.06;;;20.21;32.98
66396;BME280;53207;51.378;-1.342;2023-04-24T06:25:14;99569.83;;;20.21;33.02
66396;BME280;53207;51.378;-1.342;2023-04-24T06:27:41;99571.60;;;20.18;33.10
66396;BME280;53207;51.378;-1.342;2023-04-24T06:30:09;99570.86;;;20.39;33.14
66396;BME280;53207;51.378;-1.342;2023-04-24T06:32:36;99572.71;;;20.11;33.31
66396;BME280;53207;51.378;-1.342;2023-04-24T06:35:05;99573.62;;;20.39;33.30
66396;BME280;53207;51.378;-1.342;2023-04-24T06:37:32;99571.14;;;20.19;33.32
66396;BME280;53207;51.378;-1.342;2023-04-24T06:39:59;99567.59;;;20.21;33.38
66396;BME280;53207;51.378;-1.342;2023-04-24T06:42:27;99565.50;;;20.35;33.50
66396;BME280;53207;51.378;-1.342;2023-04-24T06:44:54;99566.90;;;20.37;33.61
66396;BME280;53207;51.378;-1.342;2023-04-24T06:47:21;99566.99;;;19.83;33.74
66396;BME280;53207;51.378;-1.342;2023-04-24T06:49:49;99576.42;;;19.92;33.77
66396;BME280;53207;51.378;-1.342;2023-04-24T06:52:16;99580.13;;;20.35;34.04
66396;BME280;53207;51.378;-1.342;2023-04-24T06:54:43;99584.33;;;20.21;34.18
66396;BME280;53207;51.378;-1.342;2023-04-24T06:57:11;99589.83;;;19.91;34.00
66396;BME280;53207;51.378;-1.342;2023-04-24T06:59:38;99593.74;;;19.91;33.98
66396;BME280;53207;51.378;-1.342;2023-04-24T07:02:05;99593.30;;;19.81;33.95
66396;BME280;53207;51.378;-1.342;2023-04-24T07:04:32;99598.24;;;20.15;33.99
66396;BME280;53207;51.378;-1.342;2023-04-24T07:07:00;99594.86;;;20.39;33.88
66396;BME280;53207;51.378;-1.342;2023-04-24T07:09:27;99596.31;;;19.91;33.84
66396;BME280;53207;51.378;-1.342;2023-04-24T07:11:55;99597.40;;;20.38;33.92
66396;BME280;53207;51.378;-1.342;2023-04-24T07:14:22;99599.66;;;20.34;33.91
66396;BME280;53207;51.378;-1.342;2023-04-24T07:16:49;99597.47;;;20.34;34.04
66396;BME280;53207;51.378;-1.342;2023-04-24T07:19:16;99600.66;;;19.87;34.01
66396;BME280;53207;51.378;-1.342;2023-04-24T07:21:43;99600.43;;;20.12;33.98
66396;BME280;53207;51.378;-1.342;2023-04-24T07:24:11;99599.67;;;20.22;34.17
66396;BME280;53207;51.378;-1.342;2023-04-24T07:26:38;99599.05;;;19.70;34.16
66396;BME280;53207;51.378;-1.342;2023-04-24T07:29:06;99596.84;;;20.06;33.98
66396;BME280;53207;51.378;-1.342;2023-04-24T07:31:33;99602.18;;;20.22;34.09
66396;BME280;53207;51.378;-1.342;2023-04-24T07:34:00;99602.96;;;20.05;34.09
66396;BME280;53207;51.378;-1.342;2023-04-24T07:36:28;99606.11;;;20.07;34.02
66396;BME280;53207;51.378;-1.342;2023-04-24T07:38:55;99607.50;;;20.20;34.22
66396;BME280;53207;51.378;-1.342;2023-04-24T07:41:22;99610.46;;;20.15;34.24
66396;BME280;53207;51.378;-1.342;2023-04-24T07:43:50;99610.21;;;20.17;34.15
66396;BME280;53207;51.378;-1.342;2023-04-24T07:46:17;99612.32;;;20.20;34.14
66396;BME280;53207;51.378;-1.342;2023-04-24T07:48:44;99616.12;;;19.96;34.19
66396;BME280;53207;51.378;-1.342;2023-04-24T07:51:11;99616.12;;;20.09;34.30
66396;BME280;53207;51.378;-1.342;2023-04-24T07:53:39;99621.14;;;19.89;34.13
66396;BME280;53207;51.378;-1.342;2023-04-24T07:56:06;99620.51;;;20.17;34.16
66396;BME280;53207;51.378;-1.342;2023-04-24T07:58:33;99623.43;;;20.11;34.24
66396;BME280;53207;51.378;-1.342;2023-04-24T08:01:01;99623.38;;;20.12;34.21
66396;BME280;53207;51.378;-1.342;2023-04-24T08:03:28;99625.10;;;20.11;34.25
66396;BME280;53207;51.378;-1.342;2023-04-24T08:05:55;99622.24;;;19.86;34.27
66396;BME280;53207;51.378;-1.342;2023-04-24T08:08:23;99620.97;;;20.14;34.17
66396;BME280;53207;51.378;-1.342;2023-04-24T08:10:50;99619.49;;;19.88;34.30
66396;BME280;53207;51.378;-1.342;2023-04-24T08:13:17;99618.51;;;19.88;34.35
66396;BME280;53207;51.378;-1.342;2023-04-24T08:15:45;99618.80;;;19.86;34.40
66396;BME280;53207;51.378;-1.342;2023-04-24T08:18:12;99620.01;;;20.10;34.41
66396;BME280;53207;51.378;-1.342;2023-04-24T08:20:39;99619.29;;;19.58;34.53
66396;BME280;53207;51.378;-1.342;2023-04-24T08:23:07;99615.34;;;20.12;34.47
66396;BME280;53207;51.378;-1.342;2023-04-24T08:25:34;99612.63;;;20.15;34.49
66396;BME280;53207;51.378;-1.342;2023-04-24T08:28:02;99608.12;;;19.86;34.74
66396;BME280;53207;51.378;-1.342;2023-04-24T08:30:30;99601.72;;;20.08;34.53
66396;BME280;53207;51.378;-1.342;2023-04-24T08:32:57;99595.79;;;19.60;34.61
66396;BME280;53207;51.378;-1.342;2023-04-24T08:35:24;99594.53;;;19.95;34.56
66396;BME280;53207;51.378;-1.342;2023-04-24T08:37:52;99592.90;;;20.11;34.75
66396;BME280;53207;51.378;-1.342;2023-04-24T08:40:25;99592.28;;;20.09;34.84
66396;BME280;53207;51.378;-1.342;2023-04-24T08:42:54;99593.58;;;20.21;34.59
66396;BME280;53207;51.378;-1.342;2023-04-24T08:45:23;99598.22;;;20.32;34.52
66396;BME280;53207;51.378;-1.342;2023-04-24T08:47:52;99595.41;;;20.33;34.54
66396;BME280;53207;51.378;-1.342;2023-04-24T08:50:20;99594.84;;;20.29;34.60
66396;BME280;53207;51.378;-1.342;2023-04-24T08:52:48;99596.02;;;19.91;34.66
66396;BME280;53207;51.378;-1.342;2023-04-24T08:55:16;99593.25;;;20.25;34.50
66396;BME280;53207;51.378;-1.342;2023-04-24T08:57:44;99591.88;;;20.30;34.55
66396;BME280;53207;51.378;-1.342;2023-04-24T09:00:12;99591.21;;;20.33;34.56
66396;BME280;53207;51.378;-1.342;2023-04-24T09:02:42;99586.77;;;20.09;34.58
66396;BME280;53207;51.378;-1.342;2023-04-24T09:05:10;99587.95;;;20.22;34.46
66396;BME280;53207;51.378;-1.342;2023-04-24T09:07:39;99592.79;;;20.28;34.43
66396;BME280;53207;51.378;-1.342;2023-04-24T09:10:08;99597.71;;;19.98;34.49
66396;BME280;53207;51.378;-1.342;2023-04-24T09:12:35;99600.88;;;19.98;34.49
66396;BME280;53207;51.378;-1.342;2023-04-24T09:15:03;99597.55;;;20.48;34.45
66396;BME280;53207;51.378;-1.342;2023-04-24T09:17:30;99595.65;;;20.31;34.43
66396;BME280;53207;51.378;-1.342;2023-04-24T09:19:58;99599.40;;;20.28;34.44
66396;BME280;53207;51.378;-1.342;2023-04-24T09:22:25;99599.90;;;20.43;34.54
66396;BME280;53207;51.378;-1.342;2023-04-24T09:25:01;99606.14;;;19.97;34.26
66396;BME280;53207;51.378;-1.342;2023-04-24T09:27:28;99610.96;;;20.21;34.34
66396;BME280;53207;51.378;-1.342;2023-04-24T09:29:56;99616.28;;;20.16;34.33
66396;BME280;53207;51.378;-1.342;2023-04-24T09:32:25;99618.68;;;20.14;34.42
66396;BME280;53207;51.378;-1.342;2023-04-24T09:35:06;99620.07;;;20.31;34.50
66396;BME280;53207;51.378;-1.342;2023-04-24T09:37:36;99622.60;;;20.04;34.45
66396;BME280;53207;51.378;-1.342;2023-04-24T09:40:14;99625.94;;;20.31;34.31
66396;BME280;53207;51.378;-1.342;2023-04-24T09:42:44;99628.06;;;20.04;34.32
66396;BME280;53207;51.378;-1.342;2023-04-24T09:45:11;99631.57;;;20.33;34.15
66396;BME280;53207;51.378;-1.342;2023-04-24T09:47:39;99630.96;;;20.26;34.14
66396;BME280;53207;51.378;-1.342;2023-04-24T09:50:12;99634.53;;;19.94;34.33
66396;BME280;53207;51.378;-1.342;2023-04-24T09:52:42;99635.97;;;20.16;34.28
66396;BME280;53207;51.378;-1.342;2023-04-24T09:55:13;99635.17;;;20.01;34.19
66396;BME280;53207;51.378;-1.342;2023-04-24T09:57:48;99636.37;;;20.21;34.12
66396;BME280;53207;51.378;-1.342;2023-04-24T10:00:19;99642.18;;;19.91;34.06
66396;BME280;53207;51.378;-1.342;2023-04-24T10:02:51;99644.00;;;19.92;34.15
66396;BME280;53207;51.378;-1.342;2023-04-24T10:05:23;99644.95;;;19.63;34.10
66396;BME280;53207;51.378;-1.342;2023-04-24T10:07:51;99641.47;;;20.11;34.15
66396;BME280;53207;51.378;-1.342;2023-04-24T10:10:18;99638.20;;;19.89;34.15
66396;BME280;53207;51.378;-1.342;2023-04-24T10:12:46;99638.19;;;20.04;34.24
66396;BME280;53207;51.378;-1.342;2023-04-24T10:15:13;99637.82;;;19.92;34.15
66396;BME280;53207;51.378;-1.342;2023-04-24T10:17:44;99641.55;;;20.03;34.33
66396;BME280;53207;51.378;-1.342;2023-04-24T10:20:11;99639.44;;;20.06;34.29
66396;BME280;53207;51.378;-1.342;2023-04-24T10:22:39;99642.19;;;20.14;34.18
66396;BME280;53207;51.378;-1.342;2023-04-24T10:25:09;99642.85;;;20.06;34.24
66396;BME280;53207;51.378;-1.342;2023-04-24T10:27:38;99646.74;;;19.93;34.16
66396;BME280;53207;51.378;-1.342;2023-04-24T10:30:07;99647.62;;;19.89;34.20
66396;BME280;53207;51.378;-1.342;2023-04-24T10:32:35;99645.39;;;19.86;34.28
66396;BME280;53207;51.378;-1.342;2023-04-24T10:35:03;99643.32;;;19.93;34.20
66396;BME280;53207;51.378;-1.342;2023-04-24T10:37:37;99645.51;;;20.15;34.10
66396;BME280;53207;51.378;-1.342;2023-04-24T10:40:06;99648.82;;;19.95;34.09
66396;BME280;53207;51.378;-1.342;2023-04-24T10:42:34;99648.24;;;20.04;34.11
66396;BME280;53207;51.378;-1.342;2023-04-24T10:45:05;99647.50;;;20.00;33.87
66396;BME280;53207;51.378;-1.342;2023-04-24T10:47:40;99648.83;;;19.98;33.98
66396;BME280;53207;51.378;-1.342;2023-04-24T10:50:09;99650.18;;;20.21;33.90
66396;BME280;53207;51.378;-1.342;2023-04-24T10:52:52;99650.09;;;19.95;33.88
66396;BME280;53207;51.378;-1.342;2023-04-24T10:55:41;99649.80;;;20.04;33.82
66396;BME280;53207;51.378;-1.342;2023-04-24T10:58:09;99649.62;;;19.95;33.99
66396;BME280;53207;51.378;-1.342;2023-04-24T11:00:38;99649.11;;;20.01;33.93
66396;BME280;53207;51.378;-1.342;2023-04-24T11:03:12;99648.81;;;19.42;34.30
66396;BME280;53207;51.378;-1.342;2023-04-24T11:05:52;99648.63;;;20.10;34.07
66396;BME280;53207;51.378;-1.342;2023-04-24T11:08:27;99650.72;;;20.11;34.03
66396;BME280;53207;51.378;-1.342;2023-04-24T11:10:57;99645.93;;;20.11;34.06
66396;BME280;53207;51.378;-1.342;2023-04-24T11:13:26;99642.71;;;19.95;33.97
66396;BME280;53207;51.378;-1.342;2023-04-24T11:16:27;99642.08;;;19.90;34.02
66396;BME280;53207;51.378;-1.342;2023-04-24T11:19:02;99640.05;;;20.14;34.00
66396;BME280;53207;51.378;-1.342;2023-04-24T11:21:39;99639.99;;;19.92;33.99
66396;BME280;53207;51.378;-1.342;2023-04-24T11:24:26;99638.32;;;19.81;33.82
66396;BME280;53207;51.378;-1.342;2023-04-24T11:26:54;99636.20;;;19.79;33.84
66396;BME280;53207;51.378;-1.342;2023-04-24T11:29:21;99633.28;;;19.93;33.69
66396;BME280;53207;51.378;-1.342;2023-04-24T11:31:49;99632.99;;;20.22;33.68
66396;BME280;53207;51.378;-1.342;2023-04-24T11:34:16;99633.32;;;20.49;33.62
66396;BME280;53207;51.378;-1.342;2023-04-24T11:36:45;99628.96;;;20.26;33.64
66396;BME280;53207;51.378;-1.342;2023-04-24T11:39:13;99623.90;;;20.47;33.64
66396;BME280;53207;51.378;-1.342;2023-04-24T11:41:41;99621.38;;;20.50;33.56
66396;BME280;53207;51.378;-1.342;2023-04-24T11:44:09;99621.73;;;20.26;33.54
66396;BME280;53207;51.378;-1.342;2023-04-24T11:46:36;99627.47;;;20.21;33.58
66396;BME280;53207;51.378;-1.342;2023-04-24T11:49:03;99627.12;;;19.94;33.55
66396;BME280;53207;51.378;-1.342;2023-04-24T11:51:30;99624.15;;;20.18;33.56
66396;BME280;53207;51.378;-1.342;2023-04-24T11:53:58;99622.36;;;19.87;33.57
66396;BME280;53207;51.378;-1.342;2023-04-24T11:56:26;99621.79;;;20.10;33.58
66396;BME280;53207;51.378;-1.342;2023-04-24T11:58:53;99621.54;;;20.11;33.53
66396;BME280;53207;51.378;-1.342;2023-04-24T12:01:21;99622.69;;;20.07;33.56
66396;BME280;53207;51.378;-1.342;2023-04-24T12:03:49;99621.76;;;20.25;33.59
66396;BME280;53207;51.378;-1.342;2023-04-24T12:06:16;99619.20;;;20.01;33.59
66396;BME280;53207;51.378;-1.342;2023-04-24T12:08:46;99618.88;;;20.16;33.65
66396;BME280;53207;51.378;-1.342;2023-04-24T12:11:15;99617.17;;;20.12;33.68
66396;BME280;53207;51.378;-1.342;2023-04-24T12:13:44;99614.64;;;19.79;33.79
66396;BME280;53207;51.378;-1.342;2023-04-24T12:16:12;99614.66;;;20.09;33.71
66396;BME280;53207;51.378;-1.342;2023-04-24T12:18:43;99614.38;;;20.03;33.77
66396;BME280;53207;51.378;-1.342;2023-04-24T12:21:19;99617.43;;;19.97;33.81
66396;BME280;53207;51.378;-1.342;2023-04-24T12:23:48;99618.90;;;19.99;33.78
66396;BME280;53207;51.378;-1.342;2023-04-24T12:26:17;99622.23;;;20.00;33.74
66396;BME280;53207;51.378;-1.342;2023-04-24T12:28:47;99623.95;;;19.91;33.83
66396;BME280;53207;51.378;-1.342;2023-04-24T12:31:15;99621.39;;;19.68;33.83
66396;BME280;53207;51.378;-1.342;2023-04-24T12:33:43;99620.85;;;19.92;33.80
66396;BME280;53207;51.378;-1.342;2023-04-24T12:36:11;99622.24;;;19.81;33.94
66396;BME280;53207;51.378;-1.342;2023-04-24T12:38:38;99623.09;;;19.85;33.88
66396;BME280;53207;51.378;-1.342;2023-04-24T12:41:07;99622.62;;;19.78;33.94
66396;BME280;53207;51.378;-1.342;2023-04-24T12:43:34;99625.05;;;19.81;33.92
66396;BME280;53207;51.378;-1.342;2023-04-24T12:46:02;99625.72;;;19.78;33.92
66396;BME280;53207;51.378;-1.342;2023-04-24T12:48:29;99629.11;;;19.68;34.03
66396;BME280;53207;51.378;-1.342;2023-04-24T12:50:57;99631.02;;;19.60;34.13
66396;BME280;53207;51.378;-1.342;2023-04-24T12:53:25;99630.59;;;19.60;34.13
66396;BME280;53207;51.378;-1.342;2023-04-24T12:55:53;99632.68;;;19.58;34.18